sensor_id;sensor_type;location;lat;lon;timestamp;P1;durP1;ratioP1;P2;durP2;ratioP2
50104;SDS011;47690;39.202;-77.198;2023-05-18T00:02:19;2.88;;;2.53;;
50104;SDS011;47690;39.202;-77.198;2023-05-18T00:04:48;2.97;;;2.60;;
50104;SDS011;47690;39.202;-77.198;2023-05-18T00:07:20;2.95;;;2.65;;
50104;SDS011;47690;39.202;-77.198;2023-05-18T00:09:51;3.05;;;2.75;;
50104;SDS011;47690;39.202;-77.198;2023-05-18T00:12:23;3.30;;;2.60;;
50104;SDS011;47690;39.202;-77.198;2023-05-18T00:14:56;2.78;;;2.50;;
50104;SDS011;47690;39.202;-77.198;2023-05-18T00:17:30;3.75;;;2.80;;
50104;SDS011;47690;39.202;-77.198;2023-05-18T00:20:01;3.33;;;2.63;;
50104;SDS011;47690;39.202;-77.198;2023-05-18T00:22:31;2.97;;;2.50;;
50104;SDS011;47690;39.202;-77.198;2023-05-18T00:25:00;3.55;;;2.80;;
50104;SDS011;47690;39.202;-77.198;2023-05-18T00:27:28;3.35;;;2.53;;
50104;SDS011;47690;39.202;-77.198;2023-05-18T00:29:58;3.72;;;2.67;;
50104;SDS011;47690;39.202;-77.198;2023-05-18T00:32:28;3.00;;;2.60;;
50104;SDS011;47690;39.202;-77.198;2023-05-18T00:34:57;3.00;;;2.58;;
50104;SDS011;47690;39.202;-77.198;2023-05-18T00:37:29;3.38;;;2.40;;
50104;SDS011;47690;39.202;-77.198;2023-05-18T00:39:58;2.88;;;2.53;;
50104;SDS011;47690;39.202;-77.198;2023-05-18T00:42:26;3.20;;;2.50;;
50104;SDS011;47690;39.202;-77.198;2023-05-18T00:44:56;3.00;;;2.70;;
50104;SDS011;47690;39.202;-77.198;2023-05-18T00:47:25;2.95;;;2.60;;
50104;SDS011;47690;39.202;-77.198;2023-05-18T00:49:55;2.90;;;2.60;;
50104;SDS011;47690;39.202;-77.198;2023-05-18T00:52:26;2.65;;;2.25;;
50104;SDS011;47690;39.202;-77.198;2023-05-18T00:54:56;2.70;;;2.40;;
50104;SDS011;47690;39.202;-77.198;2023-05-18T00:57:28;3.22;;;2.70;;
50104;SDS011;47690;39.202;-77.198;2023-05-18T00:59:56;2.60;;;2.40;;
50104;SDS011;47690;39.202;-77.198;2023-05-18T01:02:26;2.47;;;2.28;;
50104;SDS011;47690;39.202;-77.198;2023-05-18T01:04:57;4.47;;;2.58;;
50104;SDS011;47690;39.202;-77.198;2023-05-18T01:07:28;2.60;;;2.40;;
50104;SDS011;47690;39.202;-77.198;2023-05-18T01:10:00;2.80;;;2.45;;
50104;SDS011;47690;39.202;-77.198;2023-05-18T01:12:30;3.15;;;2.58;;
50104;SDS011;47690;39.202;-77.198;2023-05-18T01:15:08;3.35;;;2.50;;
50104;SDS011;47690;39.202;-77.198;2023-05-18T01:26:13;2.88;;;2.40;;
50104;SDS011;47690;39.202;-77.198;2023-05-18T01:28:44;2.50;;;2.30;;
50104;SDS011;47690;39.202;-77.198;2023-05-18T01:31:14;2.80;;;2.30;;
50104;SDS011;47690;39.202;-77.198;2023-05-18T01:33:44;3.28;;;2.60;;
50104;SDS011;47690;39.202;-77.198;2023-05-18T01:36:16;2.55;;;2.33;;
50104;SDS011;47690;39.202;-77.198;2023-05-18T01:38:47;2.92;;;2.63;;
50104;SDS011;47690;39.202;-77.198;2023-05-18T01:41:25;2.75;;;2.42;;
50104;SDS011;47690;39.202;-77.198;2023-05-18T01:46:38;3.65;;;2.60;;
50104;SDS011;47690;39.202;-77.198;2023-05-18T01:49:16;2.60;;;2.40;;
50104;SDS011;47690;39.202;-77.198;2023-05-18T01:51:57;2.53;;;2.33;;
50104;SDS011;47690;39.202;-77.198;2023-05-18T01:54:35;2.60;;;2.38;;
50104;SDS011;47690;39.202;-77.198;2023-05-18T01:57:08;2.53;;;2.33;;
50104;SDS011;47690;39.202;-77.198;2023-05-18T01:59:40;2.97;;;2.35;;
50104;SDS011;47690;39.202;-77.198;2023-05-18T02:02:11;2.40;;;2.20;;
50104;SDS011;47690;39.202;-77.198;2023-05-18T02:04:43;5.03;;;2.67;;
50104;SDS011;47690;39.202;-77.198;2023-05-18T02:07:15;2.88;;;2.42;;
50104;SDS011;47690;39.202;-77.198;2023-05-18T02:09:44;2.75;;;2.50;;
50104;SDS011;47690;39.202;-77.198;2023-05-18T02:12:14;2.75;;;2.50;;
50104;SDS011;47690;39.202;-77.198;2023-05-18T02:14:46;2.28;;;2.08;;
50104;SDS011;47690;39.202;-77.198;2023-05-18T02:17:17;2.65;;;2.42;;
50104;SDS011;47690;39.202;-77.198;2023-05-18T02:19:46;3.50;;;2.38;;
50104;SDS011;47690;39.202;-77.198;2023-05-18T02:22:16;3.40;;;2.63;;
50104;SDS011;47690;39.202;-77.198;2023-05-18T02:24:46;2.85;;;2.53;;
50104;SDS011;47690;39.202;-77.198;2023-05-18T02:27:20;2.85;;;2.40;;
50104;SDS011;47690;39.202;-77.198;2023-05-18T02:29:50;2.95;;;2.50;;
50104;SDS011;47690;39.202;-77.198;2023-05-18T02:32:19;3.75;;;2.45;;
50104;SDS011;47690;39.202;-77.198;2023-05-18T02:34:51;2.50;;;2.30;;
50104;SDS011;47690;39.202;-77.198;2023-05-18T02:37:24;2.85;;;2.55;;
50104;SDS011;47690;39.202;-77.198;2023-05-18T02:39:54;3.08;;;2.35;;
50104;SDS011;47690;39.202;-77.198;2023-05-18T02:42:24;2.50;;;2.30;;
50104;SDS011;47690;39.202;-77.198;2023-05-18T02:44:58;2.97;;;2.42;;
50104;SDS011;47690;39.202;-77.198;2023-05-18T02:47:31;2.70;;;2.50;;
50104;SDS011;47690;39.202;-77.198;2023-05-18T02:50:00;3.15;;;2.40;;
50104;SDS011;47690;39.202;-77.198;2023-05-18T02:52:35;2.40;;;2.20;;
50104;SDS011;47690;39.202;-77.198;2023-05-18T02:55:05;4.03;;;2.38;;
50104;SDS011;47690;39.202;-77.198;2023-05-18T02:58:02;2.45;;;2.22;;
50104;SDS011;47690;39.202;-77.198;2023-05-18T03:00:52;3.10;;;2.60;;
50104;SDS011;47690;39.202;-77.198;2023-05-18T03:03:23;2.78;;;2.58;;
50104;SDS011;47690;39.202;-77.198;2023-05-18T03:05:52;2.80;;;2.45;;
50104;SDS011;47690;39.202;-77.198;2023-05-18T03:08:23;3.17;;;2.65;;
50104;SDS011;47690;39.202;-77.198;2023-05-18T03:10:54;2.70;;;2.50;;
50104;SDS011;47690;39.202;-77.198;2023-05-18T03:13:23;2.90;;;2.40;;
50104;SDS011;47690;39.202;-77.198;2023-05-18T03:15:54;2.70;;;2.30;;
50104;SDS011;47690;39.202;-77.198;2023-05-18T03:18:27;3.85;;;2.42;;
50104;SDS011;47690;39.202;-77.198;2023-05-18T03:20:57;2.70;;;2.50;;
50104;SDS011;47690;39.202;-77.198;2023-05-18T03:23:30;2.78;;;2.30;;
50104;SDS011;47690;39.202;-77.198;2023-05-18T03:26:00;2.35;;;2.13;;
50104;SDS011;47690;39.202;-77.198;2023-05-18T03:28:31;4.13;;;2.28;;
50104;SDS011;47690;39.202;-77.198;2023-05-18T03:31:00;2.60;;;2.40;;
50104;SDS011;47690;39.202;-77.198;2023-05-18T03:33:31;2.55;;;2.20;;
50104;SDS011;47690;39.202;-77.198;2023-05-18T03:36:01;3.03;;;2.60;;
50104;SDS011;47690;39.202;-77.198;2023-05-18T03:38:32;5.28;;;2.10;;
50104;SDS011;47690;39.202;-77.198;2023-05-18T03:41:07;2.45;;;2.22;;
50104;SDS011;47690;39.202;-77.198;2023-05-18T03:43:36;2.40;;;2.20;;
50104;SDS011;47690;39.202;-77.198;2023-05-18T03:46:06;2.92;;;2.15;;
50104;SDS011;47690;39.202;-77.198;2023-05-18T03:48:36;3.33;;;2.42;;
50104;SDS011;47690;39.202;-77.198;2023-05-18T03:51:04;2.33;;;2.13;;
50104;SDS011;47690;39.202;-77.198;2023-05-18T03:53:34;3.35;;;2.22;;
50104;SDS011;47690;39.202;-77.198;2023-05-18T03:56:05;3.92;;;2.25;;
50104;SDS011;47690;39.202;-77.198;2023-05-18T03:58:34;2.33;;;2.13;;
50104;SDS011;47690;39.202;-77.198;2023-05-18T04:01:03;2.80;;;2.30;;
50104;SDS011;47690;39.202;-77.198;2023-05-18T04:03:34;2.78;;;2.30;;
50104;SDS011;47690;39.202;-77.198;2023-05-18T04:06:04;2.40;;;2.20;;
50104;SDS011;47690;39.202;-77.198;2023-05-18T04:08:34;2.50;;;2.20;;
50104;SDS011;47690;39.202;-77.198;2023-05-18T04:11:04;2.97;;;2.33;;
50104;SDS011;47690;39.202;-77.198;2023-05-18T04:13:36;2.58;;;2.20;;
50104;SDS011;47690;39.202;-77.198;2023-05-18T04:16:06;3.08;;;2.47;;
50104;SDS011;47690;39.202;-77.198;2023-05-18T04:18:40;2.75;;;2.40;;
50104;SDS011;47690;39.202;-77.198;2023-05-18T04:21:12;2.53;;;2.22;;
50104;SDS011;47690;39.202;-77.198;2023-05-18T04:23:45;2.75;;;2.30;;
50104;SDS011;47690;39.202;-77.198;2023-05-18T04:26:16;2.50;;;2.30;;
50104;SDS011;47690;39.202;-77.198;2023-05-18T04:28:47;2.45;;;2.15;;
50104;SDS011;47690;39.202;-77.198;2023-05-18T04:31:17;3.35;;;2.30;;
50104;SDS011;47690;39.202;-77.198;2023-05-18T04:33:48;2.42;;;2.20;;
50104;SDS011;47690;39.202;-77.198;2023-05-18T04:36:18;2.95;;;2.30;;
50104;SDS011;47690;39.202;-77.198;2023-05-18T04:38:48;2.50;;;2.30;;
50104;SDS011;47690;39.202;-77.198;2023-05-18T04:41:18;2.50;;;2.22;;
50104;SDS011;47690;39.202;-77.198;2023-05-18T04:43:51;3.38;;;2.45;;
50104;SDS011;47690;39.202;-77.198;2023-05-18T04:46:23;3.47;;;2.38;;
50104;SDS011;47690;39.202;-77.198;2023-05-18T04:48:53;3.13;;;2.20;;
50104;SDS011;47690;39.202;-77.198;2023-05-18T04:51:24;3.58;;;2.25;;
50104;SDS011;47690;39.202;-77.198;2023-05-18T04:53:54;2.45;;;2.25;;
50104;SDS011;47690;39.202;-77.198;2023-05-18T04:56:24;3.75;;;2.30;;
50104;SDS011;47690;39.202;-77.198;2023-05-18T04:58:54;2.10;;;1.90;;
50104;SDS011;47690;39.202;-77.198;2023-05-18T05:01:28;3.85;;;2.13;;
50104;SDS011;47690;39.202;-77.198;2023-05-18T05:04:00;2.60;;;2.22;;
50104;SDS011;47690;39.202;-77.198;2023-05-18T05:06:32;3.25;;;2.70;;
50104;SDS011;47690;39.202;-77.198;2023-05-18T05:09:02;2.70;;;2.45;;
50104;SDS011;47690;39.202;-77.198;2023-05-18T05:11:31;2.70;;;2.30;;
50104;SDS011;47690;39.202;-77.198;2023-05-18T05:14:00;3.03;;;2.38;;
50104;SDS011;47690;39.202;-77.198;2023-05-18T05:16:31;2.40;;;2.03;;
50104;SDS011;47690;39.202;-77.198;2023-05-18T05:19:02;2.50;;;2.30;;
50104;SDS011;47690;39.202;-77.198;2023-05-18T05:21:31;2.67;;;2.38;;
50104;SDS011;47690;39.202;-77.198;2023-05-18T05:24:02;3.90;;;2.15;;
50104;SDS011;47690;39.202;-77.198;2023-05-18T05:26:33;2.75;;;2.15;;
50104;SDS011;47690;39.202;-77.198;2023-05-18T05:29:09;2.92;;;2.30;;
50104;SDS011;47690;39.202;-77.198;2023-05-18T05:31:40;2.33;;;2.10;;
50104;SDS011;47690;39.202;-77.198;2023-05-18T05:34:11;2.47;;;2.28;;
50104;SDS011;47690;39.202;-77.198;2023-05-18T05:36:42;2.92;;;2.40;;
50104;SDS011;47690;39.202;-77.198;2023-05-18T05:39:12;4.10;;;2.53;;
50104;SDS011;47690;39.202;-77.198;2023-05-18T05:41:45;3.25;;;2.50;;
50104;SDS011;47690;39.202;-77.198;2023-05-18T05:44:15;2.75;;;2.38;;
50104;SDS011;47690;39.202;-77.198;2023-05-18T05:46:45;2.75;;;2.38;;
50104;SDS011;47690;39.202;-77.198;2023-05-18T05:49:15;2.75;;;2.40;;
50104;SDS011;47690;39.202;-77.198;2023-05-18T05:51:45;3.30;;;2.13;;
50104;SDS011;47690;39.202;-77.198;2023-05-18T05:54:15;2.58;;;2.20;;
50104;SDS011;47690;39.202;-77.198;2023-05-18T05:56:44;3.10;;;2.50;;
50104;SDS011;47690;39.202;-77.198;2023-05-18T05:59:15;3.00;;;2.40;;
50104;SDS011;47690;39.202;-77.198;2023-05-18T06:01:46;2.97;;;2.20;;
50104;SDS011;47690;39.202;-77.198;2023-05-18T06:04:17;2.80;;;2.30;;
50104;SDS011;47690;39.202;-77.198;2023-05-18T06:06:47;2.97;;;2.58;;
50104;SDS011;47690;39.202;-77.198;2023-05-18T06:09:16;3.15;;;2.50;;
50104;SDS011;47690;39.202;-77.198;2023-05-18T06:11:46;2.40;;;2.20;;
50104;SDS011;47690;39.202;-77.198;2023-05-18T06:14:15;3.83;;;2.38;;
50104;SDS011;47690;39.202;-77.198;2023-05-18T06:16:45;2.90;;;2.40;;
50104;SDS011;47690;39.202;-77.198;2023-05-18T06:19:16;3.92;;;2.47;;
50104;SDS011;47690;39.202;-77.198;2023-05-18T06:21:47;2.70;;;2.42;;
50104;SDS011;47690;39.202;-77.198;2023-05-18T06:24:18;2.50;;;2.30;;
50104;SDS011;47690;39.202;-77.198;2023-05-18T06:27:13;2.63;;;2.30;;
50104;SDS011;47690;39.202;-77.198;2023-05-18T06:29:57;3.05;;;2.40;;
50104;SDS011;47690;39.202;-77.198;2023-05-18T06:32:50;3.83;;;2.30;;
50104;SDS011;47690;39.202;-77.198;2023-05-18T06:35:19;2.65;;;2.17;;
50104;SDS011;47690;39.202;-77.198;2023-05-18T06:37:47;2.50;;;2.22;;
50104;SDS011;47690;39.202;-77.198;2023-05-18T06:40:16;3.33;;;2.20;;
50104;SDS011;47690;39.202;-77.198;2023-05-18T06:42:47;2.53;;;2.33;;
50104;SDS011;47690;39.202;-77.198;2023-05-18T06:45:26;3.15;;;2.30;;
50104;SDS011;47690;39.202;-77.198;2023-05-18T06:48:10;2.30;;;2.10;;
50104;SDS011;47690;39.202;-77.198;2023-05-18T06:50:40;2.40;;;2.20;;
50104;SDS011;47690;39.202;-77.198;2023-05-18T06:53:11;2.50;;;2.20;;
50104;SDS011;47690;39.202;-77.198;2023-05-18T06:55:42;3.13;;;2.40;;
50104;SDS011;47690;39.202;-77.198;2023-05-18T06:58:12;2.38;;;2.10;;
50104;SDS011;47690;39.202;-77.198;2023-05-18T07:00:42;2.55;;;2.33;;
50104;SDS011;47690;39.202;-77.198;2023-05-18T07:03:14;3.03;;;2.50;;
50104;SDS011;47690;39.202;-77.198;2023-05-18T07:05:46;2.83;;;2.50;;
50104;SDS011;47690;39.202;-77.198;2023-05-18T07:08:15;2.42;;;2.20;;
50104;SDS011;47690;39.202;-77.198;2023-05-18T07:10:45;2.88;;;2.30;;
50104;SDS011;47690;39.202;-77.198;2023-05-18T07:13:16;3.45;;;2.40;;
50104;SDS011;47690;39.202;-77.198;2023-05-18T07:15:46;2.35;;;2.15;;
50104;SDS011;47690;39.202;-77.198;2023-05-18T07:18:16;2.97;;;2.47;;
50104;SDS011;47690;39.202;-77.198;2023-05-18T07:20:46;2.83;;;2.30;;
50104;SDS011;47690;39.202;-77.198;2023-05-18T07:23:15;2.75;;;2.40;;
50104;SDS011;47690;39.202;-77.198;2023-05-18T07:25:44;2.55;;;2.30;;
50104;SDS011;47690;39.202;-77.198;2023-05-18T07:28:15;2.40;;;2.13;;
50104;SDS011;47690;39.202;-77.198;2023-05-18T07:30:47;3.50;;;2.38;;
50104;SDS011;47690;39.202;-77.198;2023-05-18T07:33:16;3.25;;;2.55;;
50104;SDS011;47690;39.202;-77.198;2023-05-18T07:35:45;3.58;;;2.40;;
50104;SDS011;47690;39.202;-77.198;2023-05-18T07:38:15;4.15;;;2.40;;
50104;SDS011;47690;39.202;-77.198;2023-05-18T07:40:44;3.97;;;2.30;;
50104;SDS011;47690;39.202;-77.198;2023-05-18T07:43:16;3.30;;;2.35;;
50104;SDS011;47690;39.202;-77.198;2023-05-18T07:45:44;3.08;;;2.15;;
50104;SDS011;47690;39.202;-77.198;2023-05-18T07:48:15;3.28;;;2.60;;
50104;SDS011;47690;39.202;-77.198;2023-05-18T07:50:44;3.45;;;2.58;;
50104;SDS011;47690;39.202;-77.198;2023-05-18T07:53:15;3.05;;;2.33;;
50104;SDS011;47690;39.202;-77.198;2023-05-18T07:55:44;2.42;;;2.22;;
50104;SDS011;47690;39.202;-77.198;2023-05-18T07:58:16;2.90;;;2.50;;
50104;SDS011;47690;39.202;-77.198;2023-05-18T08:00:45;2.60;;;2.40;;
50104;SDS011;47690;39.202;-77.198;2023-05-18T08:03:15;2.40;;;2.10;;
50104;SDS011;47690;39.202;-77.198;2023-05-18T08:05:44;4.15;;;2.33;;
50104;SDS011;47690;39.202;-77.198;2023-05-18T08:08:14;2.50;;;2.10;;
50104;SDS011;47690;39.202;-77.198;2023-05-18T08:10:44;2.80;;;2.42;;
50104;SDS011;47690;39.202;-77.198;2023-05-18T08:13:15;2.58;;;2.10;;
50104;SDS011;47690;39.202;-77.198;2023-05-18T08:15:44;2.30;;;2.10;;
50104;SDS011;47690;39.202;-77.198;2023-05-18T08:18:30;2.72;;;2.42;;
50104;SDS011;47690;39.202;-77.198;2023-05-18T08:21:06;2.60;;;2.40;;
50104;SDS011;47690;39.202;-77.198;2023-05-18T08:23:37;3.50;;;2.17;;
50104;SDS011;47690;39.202;-77.198;2023-05-18T08:26:06;2.88;;;2.33;;
50104;SDS011;47690;39.202;-77.198;2023-05-18T08:31:12;3.20;;;1.88;;
50104;SDS011;47690;39.202;-77.198;2023-05-18T08:33:44;2.30;;;2.10;;
50104;SDS011;47690;39.202;-77.198;2023-05-18T08:36:15;3.50;;;2.20;;
50104;SDS011;47690;39.202;-77.198;2023-05-18T08:38:46;2.80;;;2.20;;
50104;SDS011;47690;39.202;-77.198;2023-05-18T08:41:35;3.85;;;2.00;;
50104;SDS011;47690;39.202;-77.198;2023-05-18T08:44:18;2.40;;;2.13;;
50104;SDS011;47690;39.202;-77.198;2023-05-18T08:46:50;2.40;;;2.00;;
50104;SDS011;47690;39.202;-77.198;2023-05-18T08:49:23;2.30;;;2.10;;
50104;SDS011;47690;39.202;-77.198;2023-05-18T08:51:54;2.22;;;2.03;;
50104;SDS011;47690;39.202;-77.198;2023-05-18T08:54:26;2.35;;;2.13;;
50104;SDS011;47690;39.202;-77.198;2023-05-18T08:56:58;4.43;;;2.15;;
50104;SDS011;47690;39.202;-77.198;2023-05-18T08:59:31;2.85;;;2.20;;
50104;SDS011;47690;39.202;-77.198;2023-05-18T09:02:04;3.42;;;2.00;;
50104;SDS011;47690;39.202;-77.198;2023-05-18T09:04:35;3.42;;;2.40;;
50104;SDS011;47690;39.202;-77.198;2023-05-18T09:07:06;2.10;;;1.90;;
50104;SDS011;47690;39.202;-77.198;2023-05-18T09:09:38;2.30;;;2.10;;
50104;SDS011;47690;39.202;-77.198;2023-05-18T09:12:09;2.33;;;2.10;;
50104;SDS011;47690;39.202;-77.198;2023-05-18T09:14:41;2.78;;;2.20;;
50104;SDS011;47690;39.202;-77.198;2023-05-18T09:17:11;3.85;;;2.25;;
50104;SDS011;47690;39.202;-77.198;2023-05-18T09:19:42;2.53;;;2.10;;
50104;SDS011;47690;39.202;-77.198;2023-05-18T09:22:13;3.95;;;2.00;;
50104;SDS011;47690;39.202;-77.198;2023-05-18T09:24:44;2.60;;;2.00;;
50104;SDS011;47690;39.202;-77.198;2023-05-18T09:27:15;3.00;;;2.20;;
50104;SDS011;47690;39.202;-77.198;2023-05-18T09:29:51;2.53;;;2.10;;
50104;SDS011;47690;39.202;-77.198;2023-05-18T09:32:21;2.75;;;2.20;;
50104;SDS011;47690;39.202;-77.198;2023-05-18T09:34:52;3.40;;;2.03;;
50104;SDS011;47690;39.202;-77.198;2023-05-18T09:37:22;3.05;;;1.95;;
50104;SDS011;47690;39.202;-77.198;2023-05-18T09:39:59;2.35;;;2.00;;
50104;SDS011;47690;39.202;-77.198;2023-05-18T09:42:35;2.25;;;2.00;;
50104;SDS011;47690;39.202;-77.198;2023-05-18T09:45:16;2.20;;;2.00;;
50104;SDS011;47690;39.202;-77.198;2023-05-18T09:47:50;2.30;;;2.10;;
50104;SDS011;47690;39.202;-77.198;2023-05-18T09:50:20;3.97;;;1.92;;
50104;SDS011;47690;39.202;-77.198;2023-05-18T09:52:50;2.95;;;2.05;;
50104;SDS011;47690;39.202;-77.198;2023-05-18T09:55:23;3.08;;;2.20;;
50104;SDS011;47690;39.202;-77.198;2023-05-18T09:57:53;2.85;;;2.38;;
50104;SDS011;47690;39.202;-77.198;2023-05-18T10:00:24;2.28;;;2.00;;
50104;SDS011;47690;39.202;-77.198;2023-05-18T10:02:54;2.60;;;2.10;;
50104;SDS011;47690;39.202;-77.198;2023-05-18T10:05:25;4.28;;;2.00;;
50104;SDS011;47690;39.202;-77.198;2023-05-18T10:08:02;2.00;;;1.80;;
50104;SDS011;47690;39.202;-77.198;2023-05-18T10:10:31;2.42;;;2.22;;
50104;SDS011;47690;39.202;-77.198;2023-05-18T10:13:04;2.20;;;2.00;;
50104;SDS011;47690;39.202;-77.198;2023-05-18T10:15:35;2.22;;;2.00;;
50104;SDS011;47690;39.202;-77.198;2023-05-18T10:18:04;3.03;;;2.22;;
50104;SDS011;47690;39.202;-77.198;2023-05-18T10:20:35;3.78;;;2.05;;
50104;SDS011;47690;39.202;-77.198;2023-05-18T10:23:04;1.90;;;1.80;;
50104;SDS011;47690;39.202;-77.198;2023-05-18T10:25:36;2.35;;;2.15;;
50104;SDS011;47690;39.202;-77.198;2023-05-18T10:28:07;4.32;;;2.10;;
50104;SDS011;47690;39.202;-77.198;2023-05-18T10:30:39;2.55;;;2.15;;
50104;SDS011;47690;39.202;-77.198;2023-05-18T10:33:12;2.97;;;2.00;;
50104;SDS011;47690;39.202;-77.198;2023-05-18T10:35:56;5.03;;;2.10;;
50104;SDS011;47690;39.202;-77.198;2023-05-18T10:38:27;4.70;;;2.00;;
50104;SDS011;47690;39.202;-77.198;2023-05-18T10:40:59;3.47;;;1.80;;
50104;SDS011;47690;39.202;-77.198;2023-05-18T10:43:32;2.38;;;2.13;;
50104;SDS011;47690;39.202;-77.198;2023-05-18T10:46:04;3.63;;;2.00;;
50104;SDS011;47690;39.202;-77.198;2023-05-18T10:48:37;2.67;;;2.08;;
50104;SDS011;47690;39.202;-77.198;2023-05-18T10:51:07;1.80;;;1.70;;
50104;SDS011;47690;39.202;-77.198;2023-05-18T10:53:36;2.70;;;2.10;;
50104;SDS011;47690;39.202;-77.198;2023-05-18T10:56:11;2.08;;;1.88;;
50104;SDS011;47690;39.202;-77.198;2023-05-18T10:58:44;2.00;;;1.80;;
50104;SDS011;47690;39.202;-77.198;2023-05-18T11:01:15;4.43;;;2.20;;
50104;SDS011;47690;39.202;-77.198;2023-05-18T11:03:44;1.80;;;1.70;;
50104;SDS011;47690;39.202;-77.198;2023-05-18T11:06:22;2.65;;;2.05;;
50104;SDS011;47690;39.202;-77.198;2023-05-18T11:08:51;2.20;;;2.00;;
50104;SDS011;47690;39.202;-77.198;2023-05-18T11:11:22;2.08;;;1.88;;
50104;SDS011;47690;39.202;-77.198;2023-05-18T11:14:00;2.63;;;1.98;;
50104;SDS011;47690;39.202;-77.198;2023-05-18T11:16:33;2.22;;;1.90;;
50104;SDS011;47690;39.202;-77.198;2023-05-18T11:19:05;2.70;;;1.90;;
50104;SDS011;47690;39.202;-77.198;2023-05-18T11:24:20;2.08;;;1.90;;
50104;SDS011;47690;39.202;-77.198;2023-05-18T11:26:58;1.90;;;1.70;;
50104;SDS011;47690;39.202;-77.198;2023-05-18T11:29:35;2.20;;;2.00;;
50104;SDS011;47690;39.202;-77.198;2023-05-18T11:32:35;3.38;;;1.90;;
50104;SDS011;47690;39.202;-77.198;2023-05-18T11:35:04;1.80;;;1.70;;
50104;SDS011;47690;39.202;-77.198;2023-05-18T11:40:10;1.80;;;1.70;;
50104;SDS011;47690;39.202;-77.198;2023-05-18T11:43:00;2.15;;;1.95;;
50104;SDS011;47690;39.202;-77.198;2023-05-18T11:45:28;1.90;;;1.65;;
50104;SDS011;47690;39.202;-77.198;2023-05-18T11:48:01;2.35;;;1.73;;
50104;SDS011;47690;39.202;-77.198;2023-05-18T11:50:30;2.00;;;1.80;;
50104;SDS011;47690;39.202;-77.198;2023-05-18T11:52:59;1.90;;;1.80;;
50104;SDS011;47690;39.202;-77.198;2023-05-18T11:55:36;2.25;;;2.00;;
50104;SDS011;47690;39.202;-77.198;2023-05-18T11:58:08;2.10;;;1.90;;
50104;SDS011;47690;39.202;-77.198;2023-05-18T12:00:37;1.63;;;1.52;;
50104;SDS011;47690;39.202;-77.198;2023-05-18T12:03:07;2.55;;;1.70;;
50104;SDS011;47690;39.202;-77.198;2023-05-18T12:05:38;1.67;;;1.58;;
50104;SDS011;47690;39.202;-77.198;2023-05-18T12:08:18;2.20;;;1.90;;
50104;SDS011;47690;39.202;-77.198;2023-05-18T12:10:48;2.33;;;1.80;;
50104;SDS011;47690;39.202;-77.198;2023-05-18T12:13:17;1.80;;;1.70;;
50104;SDS011;47690;39.202;-77.198;2023-05-18T12:15:49;1.80;;;1.70;;
50104;SDS011;47690;39.202;-77.198;2023-05-18T12:18:20;1.73;;;1.48;;
50104;SDS011;47690;39.202;-77.198;2023-05-18T12:20:48;2.08;;;1.77;;
50104;SDS011;47690;39.202;-77.198;2023-05-18T12:23:17;3.15;;;1.60;;
50104;SDS011;47690;39.202;-77.198;2023-05-18T12:25:46;1.75;;;1.48;;
50104;SDS011;47690;39.202;-77.198;2023-05-18T12:28:15;2.20;;;2.00;;
50104;SDS011;47690;39.202;-77.198;2023-05-18T12:30:45;2.20;;;1.88;;
50104;SDS011;47690;39.202;-77.198;2023-05-18T12:33:16;4.15;;;2.05;;
50104;SDS011;47690;39.202;-77.198;2023-05-18T12:35:45;2.20;;;1.80;;
50104;SDS011;47690;39.202;-77.198;2023-05-18T12:38:16;2.10;;;1.70;;
50104;SDS011;47690;39.202;-77.198;2023-05-18T12:40:46;2.13;;;1.90;;
50104;SDS011;47690;39.202;-77.198;2023-05-18T12:43:15;2.28;;;1.80;;
50104;SDS011;47690;39.202;-77.198;2023-05-18T12:45:45;2.00;;;1.80;;
50104;SDS011;47690;39.202;-77.198;2023-05-18T12:48:15;1.67;;;1.58;;
50104;SDS011;47690;39.202;-77.198;2023-05-18T12:50:46;1.70;;;1.60;;
50104;SDS011;47690;39.202;-77.198;2023-05-18T12:53:16;1.70;;;1.60;;
50104;SDS011;47690;39.202;-77.198;2023-05-18T12:55:54;2.22;;;1.90;;
50104;SDS011;47690;39.202;-77.198;2023-05-18T12:58:25;2.78;;;1.80;;
50104;SDS011;47690;39.202;-77.198;2023-05-18T13:00:54;2.05;;;1.85;;
50104;SDS011;47690;39.202;-77.198;2023-05-18T13:03:22;2.13;;;1.92;;
50104;SDS011;47690;39.202;-77.198;2023-05-18T13:06:03;2.33;;;1.50;;
50104;SDS011;47690;39.202;-77.198;2023-05-18T13:08:35;1.90;;;1.80;;
50104;SDS011;47690;39.202;-77.198;2023-05-18T13:11:06;2.00;;;1.80;;
50104;SDS011;47690;39.202;-77.198;2023-05-18T13:14:00;2.30;;;1.80;;
50104;SDS011;47690;39.202;-77.198;2023-05-18T13:16:38;2.78;;;1.73;;
50104;SDS011;47690;39.202;-77.198;2023-05-18T13:19:15;1.77;;;1.67;;
50104;SDS011;47690;39.202;-77.198;2023-05-18T13:21:54;1.80;;;1.70;;
50104;SDS011;47690;39.202;-77.198;2023-05-18T13:24:24;2.17;;;1.90;;
50104;SDS011;47690;39.202;-77.198;2023-05-18T13:26:53;2.88;;;2.00;;
50104;SDS011;47690;39.202;-77.198;2023-05-18T13:29:22;1.90;;;1.70;;
50104;SDS011;47690;39.202;-77.198;2023-05-18T13:31:51;2.13;;;1.80;;
50104;SDS011;47690;39.202;-77.198;2023-05-18T13:34:22;2.00;;;1.80;;
50104;SDS011;47690;39.202;-77.198;2023-05-18T13:36:51;2.30;;;2.00;;
50104;SDS011;47690;39.202;-77.198;2023-05-18T13:39:22;3.15;;;1.85;;
50104;SDS011;47690;39.202;-77.198;2023-05-18T13:41:52;2.10;;;1.80;;
50104;SDS011;47690;39.202;-77.198;2023-05-18T13:44:22;2.33;;;1.90;;
50104;SDS011;47690;39.202;-77.198;2023-05-18T13:46:50;1.90;;;1.70;;
50104;SDS011;47690;39.202;-77.198;2023-05-18T13:49:20;11.20;;;1.92;;
50104;SDS011;47690;39.202;-77.198;2023-05-18T13:51:48;2.00;;;1.80;;
50104;SDS011;47690;39.202;-77.198;2023-05-18T13:54:16;1.88;;;1.70;;
50104;SDS011;47690;39.202;-77.198;2023-05-18T13:56:46;1.95;;;1.80;;
50104;SDS011;47690;39.202;-77.198;2023-05-18T13:59:19;3.40;;;2.00;;
50104;SDS011;47690;39.202;-77.198;2023-05-18T14:01:57;2.92;;;2.08;;
50104;SDS011;47690;39.202;-77.198;2023-05-18T14:04:26;2.00;;;1.80;;
50104;SDS011;47690;39.202;-77.198;2023-05-18T14:06:55;1.90;;;1.80;;
50104;SDS011;47690;39.202;-77.198;2023-05-18T14:09:25;2.70;;;2.20;;
50104;SDS011;47690;39.202;-77.198;2023-05-18T14:11:56;2.78;;;2.00;;
50104;SDS011;47690;39.202;-77.198;2023-05-18T14:14:26;2.00;;;1.80;;
50104;SDS011;47690;39.202;-77.198;2023-05-18T14:16:55;1.95;;;1.70;;
50104;SDS011;47690;39.202;-77.198;2023-05-18T14:19:24;3.05;;;2.10;;
50104;SDS011;47690;39.202;-77.198;2023-05-18T14:21:52;1.98;;;1.77;;
50104;SDS011;47690;39.202;-77.198;2023-05-18T14:24:22;2.45;;;1.80;;
50104;SDS011;47690;39.202;-77.198;2023-05-18T14:26:51;2.20;;;2.00;;
50104;SDS011;47690;39.202;-77.198;2023-05-18T14:29:20;2.38;;;1.92;;
50104;SDS011;47690;39.202;-77.198;2023-05-18T14:31:48;3.03;;;1.90;;
50104;SDS011;47690;39.202;-77.198;2023-05-18T14:34:16;2.85;;;2.00;;
50104;SDS011;47690;39.202;-77.198;2023-05-18T14:36:46;2.38;;;2.10;;
50104;SDS011;47690;39.202;-77.198;2023-05-18T14:39:18;2.13;;;1.92;;
50104;SDS011;47690;39.202;-77.198;2023-05-18T14:41:47;2.42;;;1.95;;
50104;SDS011;47690;39.202;-77.198;2023-05-18T14:44:17;2.92;;;2.30;;
50104;SDS011;47690;39.202;-77.198;2023-05-18T14:46:46;2.53;;;2.03;;
50104;SDS011;47690;39.202;-77.198;2023-05-18T14:49:26;2.35;;;2.05;;
50104;SDS011;47690;39.202;-77.198;2023-05-18T14:52:24;3.00;;;1.98;;
50104;SDS011;47690;39.202;-77.198;2023-05-18T14:54:53;2.20;;;2.00;;
50104;SDS011;47690;39.202;-77.198;2023-05-18T14:57:22;2.90;;;1.98;;
50104;SDS011;47690;39.202;-77.198;2023-05-18T14:59:53;3.22;;;2.58;;
50104;SDS011;47690;39.202;-77.198;2023-05-18T15:02:25;2.30;;;2.10;;
50104;SDS011;47690;39.202;-77.198;2023-05-18T15:04:56;3.15;;;1.80;;
50104;SDS011;47690;39.202;-77.198;2023-05-18T15:07:26;4.05;;;2.15;;